sensor_id;sensor_type;location;lat;lon;timestamp;temperature;humidity
68139;DHT22;54940;50.842;4.410;2023-08-06T00:00:27;16.00;99.90
68139;DHT22;54940;50.842;4.410;2023-08-06T00:02:53;16.10;99.90
68139;DHT22;54940;50.842;4.410;2023-08-06T00:05:19;16.10;99.90
68139;DHT22;54940;50.842;4.410;2023-08-06T00:07:47;16.20;99.90
68139;DHT22;54940;50.842;4.410;2023-08-06T00:10:12;16.10;99.90
68139;DHT22;54940;50.842;4.410;2023-08-06T00:12:38;16.20;99.90
68139;DHT22;54940;50.842;4.410;2023-08-06T00:15:04;16.20;99.90
68139;DHT22;54940;50.842;4.410;2023-08-06T00:17:30;16.10;99.90
68139;DHT22;54940;50.842;4.410;2023-08-06T00:19:56;16.10;99.90
68139;DHT22;54940;50.842;4.410;2023-08-06T00:22:21;16.00;99.90
68139;DHT22;54940;50.842;4.410;2023-08-06T00:24:47;15.90;99.90
68139;DHT22;54940;50.842;4.410;2023-08-06T00:27:12;15.90;99.90
68139;DHT22;54940;50.842;4.410;2023-08-06T00:29:38;16.00;99.90
68139;DHT22;54940;50.842;4.410;2023-08-06T00:32:04;15.90;99.90
68139;DHT22;54940;50.842;4.410;2023-08-06T00:34:29;15.90;99.90
68139;DHT22;54940;50.842;4.410;2023-08-06T00:36:55;15.90;99.90
68139;DHT22;54940;50.842;4.410;2023-08-06T00:39:21;15.80;99.90
68139;DHT22;54940;50.842;4.410;2023-08-06T00:41:46;15.90;99.90
68139;DHT22;54940;50.842;4.410;2023-08-06T00:44:12;16.00;99.90
68139;DHT22;54940;50.842;4.410;2023-08-06T00:46:38;15.90;99.90
68139;DHT22;54940;50.842;4.410;2023-08-06T00:49:05;15.80;99.90
68139;DHT22;54940;50.842;4.410;2023-08-06T00:51:30;15.90;99.90
68139;DHT22;54940;50.842;4.410;2023-08-06T00:53:57;15.90;99.90
68139;DHT22;54940;50.842;4.410;2023-08-06T00:56:25;16.00;99.90
68139;DHT22;54940;50.842;4.410;2023-08-06T00:58:51;15.90;99.90
68139;DHT22;54940;50.842;4.410;2023-08-06T01:01:16;15.90;99.90
68139;DHT22;54940;50.842;4.410;2023-08-06T01:03:42;15.90;99.90
68139;DHT22;54940;50.842;4.410;2023-08-06T01:06:08;16.00;99.90
68139;DHT22;54940;50.842;4.410;2023-08-06T01:13:53;16.10;99.90
68139;DHT22;54940;50.842;4.410;2023-08-06T01:16:23;16.00;99.90
68139;DHT22;54940;50.842;4.410;2023-08-06T01:18:49;15.90;99.90
68139;DHT22;54940;50.842;4.410;2023-08-06T01:21:18;16.00;99.90
68139;DHT22;54940;50.842;4.410;2023-08-06T01:23:49;16.00;99.90
68139;DHT22;54940;50.842;4.410;2023-08-06T01:26:24;16.00;99.90
68139;DHT22;54940;50.842;4.410;2023-08-06T01:29:03;16.00;99.90
68139;DHT22;54940;50.842;4.410;2023-08-06T01:31:37;15.90;99.90
68139;DHT22;54940;50.842;4.410;2023-08-06T01:34:06;15.90;99.90
68139;DHT22;54940;50.842;4.410;2023-08-06T01:36:32;16.00;99.90
68139;DHT22;54940;50.842;4.410;2023-08-06T01:39:01;16.00;99.90
68139;DHT22;54940;50.842;4.410;2023-08-06T01:41:27;15.90;99.90
68139;DHT22;54940;50.842;4.410;2023-08-06T01:43:52;15.90;99.90
68139;DHT22;54940;50.842;4.410;2023-08-06T01:46:18;16.00;99.90
68139;DHT22;54940;50.842;4.410;2023-08-06T01:48:43;16.00;99.90
68139;DHT22;54940;50.842;4.410;2023-08-06T01:51:09;16.00;99.90
68139;DHT22;54940;50.842;4.410;2023-08-06T01:53:35;16.00;99.90
68139;DHT22;54940;50.842;4.410;2023-08-06T01:56:01;16.00;99.90
68139;DHT22;54940;50.842;4.410;2023-08-06T01:58:26;16.00;99.90
68139;DHT22;54940;50.842;4.410;2023-08-06T02:00:52;16.00;99.90
68139;DHT22;54940;50.842;4.410;2023-08-06T02:03:18;16.00;99.90
68139;DHT22;54940;50.842;4.410;2023-08-06T02:05:43;15.90;99.90
68139;DHT22;54940;50.842;4.410;2023-08-06T02:08:09;15.90;99.90
68139;DHT22;54940;50.842;4.410;2023-08-06T02:10:35;16.00;99.90
68139;DHT22;54940;50.842;4.410;2023-08-06T02:13:03;16.00;99.90
68139;DHT22;54940;50.842;4.410;2023-08-06T02:15:28;16.10;99.90
68139;DHT22;54940;50.842;4.410;2023-08-06T02:17:54;16.00;99.90
68139;DHT22;54940;50.842;4.410;2023-08-06T02:20:20;15.90;99.90
68139;DHT22;54940;50.842;4.410;2023-08-06T02:22:45;15.90;99.90
68139;DHT22;54940;50.842;4.410;2023-08-06T02:25:11;16.00;99.90
68139;DHT22;54940;50.842;4.410;2023-08-06T02:27:39;15.80;99.90
68139;DHT22;54940;50.842;4.410;2023-08-06T02:30:05;15.80;99.90
68139;DHT22;54940;50.842;4.410;2023-08-06T02:32:31;15.90;99.90
68139;DHT22;54940;50.842;4.410;2023-08-06T02:34:57;15.90;99.90
68139;DHT22;54940;50.842;4.410;2023-08-06T02:37:23;15.80;99.90
68139;DHT22;54940;50.842;4.410;2023-08-06T02:39:49;15.90;99.90
68139;DHT22;54940;50.842;4.410;2023-08-06T02:42:14;15.90;99.90
68139;DHT22;54940;50.842;4.410;2023-08-06T02:44:40;16.00;99.90
68139;DHT22;54940;50.842;4.410;2023-08-06T02:47:08;15.90;99.90
68139;DHT22;54940;50.842;4.410;2023-08-06T02:49:33;15.90;99.90
68139;DHT22;54940;50.842;4.410;2023-08-06T02:51:59;15.90;99.90
68139;DHT22;54940;50.842;4.410;2023-08-06T02:54:25;15.80;99.90
68139;DHT22;54940;50.842;4.410;2023-08-06T02:56:50;15.70;99.90
68139;DHT22;54940;50.842;4.410;2023-08-06T02:59:16;15.80;99.90
68139;DHT22;54940;50.842;4.410;2023-08-06T03:01:44;15.80;99.90
68139;DHT22;54940;50.842;4.410;2023-08-06T03:04:09;15.70;99.90
68139;DHT22;54940;50.842;4.410;2023-08-06T03:06:35;15.80;99.90
68139;DHT22;54940;50.842;4.410;2023-08-06T03:09:03;15.80;99.90
68139;DHT22;54940;50.842;4.410;2023-08-06T03:11:28;15.80;99.90
68139;DHT22;54940;50.842;4.410;2023-08-06T03:13:54;15.70;99.90
68139;DHT22;54940;50.842;4.410;2023-08-06T03:16:20;15.80;99.90
68139;DHT22;54940;50.842;4.410;2023-08-06T03:18:45;15.80;99.90
68139;DHT22;54940;50.842;4.410;2023-08-06T03:21:11;15.80;99.90
68139;DHT22;54940;50.842;4.410;2023-08-06T03:23:37;15.70;99.90
68139;DHT22;54940;50.842;4.410;2023-08-06T03:26:02;15.70;99.90
68139;DHT22;54940;50.842;4.410;2023-08-06T03:28:28;15.60;99.90
68139;DHT22;54940;50.842;4.410;2023-08-06T03:31:03;15.50;99.90
68139;DHT22;54940;50.842;4.410;2023-08-06T03:33:29;15.50;99.90
68139;DHT22;54940;50.842;4.410;2023-08-06T03:35:55;15.50;99.90
68139;DHT22;54940;50.842;4.410;2023-08-06T03:38:21;15.40;99.90
68139;DHT22;54940;50.842;4.410;2023-08-06T03:40:48;15.50;99.90
68139;DHT22;54940;50.842;4.410;2023-08-06T03:43:14;15.70;99.90
68139;DHT22;54940;50.842;4.410;2023-08-06T03:45:40;15.70;99.90
68139;DHT22;54940;50.842;4.410;2023-08-06T03:48:07;15.70;99.90
68139;DHT22;54940;50.842;4.410;2023-08-06T03:50:32;15.80;99.90
68139;DHT22;54940;50.842;4.410;2023-08-06T03:52:58;15.80;99.90
68139;DHT22;54940;50.842;4.410;2023-08-06T03:55:24;15.80;99.90
68139;DHT22;54940;50.842;4.410;2023-08-06T03:57:49;15.80;99.90
68139;DHT22;54940;50.842;4.410;2023-08-06T04:00:15;15.80;99.90
68139;DHT22;54940;50.842;4.410;2023-08-06T04:02:41;15.90;99.90
68139;DHT22;54940;50.842;4.410;2023-08-06T04:05:07;16.00;99.90
68139;DHT22;54940;50.842;4.410;2023-08-06T04:07:35;16.10;99.90
68139;DHT22;54940;50.842;4.410;2023-08-06T04:10:03;16.00;99.90
68139;DHT22;54940;50.842;4.410;2023-08-06T04:12:29;16.00;99.90
68139;DHT22;54940;50.842;4.410;2023-08-06T04:14:57;15.70;99.90
68139;DHT22;54940;50.842;4.410;2023-08-06T04:17:22;15.50;99.90
68139;DHT22;54940;50.842;4.410;2023-08-06T04:19:53;15.40;99.90
68139;DHT22;54940;50.842;4.410;2023-08-06T04:22:19;15.30;99.90
68139;DHT22;54940;50.842;4.410;2023-08-06T04:24:45;15.20;99.90
68139;DHT22;54940;50.842;4.410;2023-08-06T04:27:12;15.20;99.90
68139;DHT22;54940;50.842;4.410;2023-08-06T04:29:38;15.20;99.90
68139;DHT22;54940;50.842;4.410;2023-08-06T04:32:06;15.20;99.90
68139;DHT22;54940;50.842;4.410;2023-08-06T04:34:32;15.20;99.90
68139;DHT22;54940;50.842;4.410;2023-08-06T04:36:59;15.00;99.90
68139;DHT22;54940;50.842;4.410;2023-08-06T04:39:24;14.90;99.90
68139;DHT22;54940;50.842;4.410;2023-08-06T04:41:50;14.90;99.90
68139;DHT22;54940;50.842;4.410;2023-08-06T04:44:15;14.90;99.90
68139;DHT22;54940;50.842;4.410;2023-08-06T04:46:41;14.90;99.90
68139;DHT22;54940;50.842;4.410;2023-08-06T04:49:07;14.90;99.90
68139;DHT22;54940;50.842;4.410;2023-08-06T04:51:33;14.80;99.90
68139;DHT22;54940;50.842;4.410;2023-08-06T04:54:01;14.80;99.90
68139;DHT22;54940;50.842;4.410;2023-08-06T04:56:26;14.60;99.90
68139;DHT22;54940;50.842;4.410;2023-08-06T04:58:52;14.70;99.90
68139;DHT22;54940;50.842;4.410;2023-08-06T05:01:18;14.70;99.90
68139;DHT22;54940;50.842;4.410;2023-08-06T05:03:44;14.50;99.90
68139;DHT22;54940;50.842;4.410;2023-08-06T05:06:09;14.50;99.90
68139;DHT22;54940;50.842;4.410;2023-08-06T05:08:36;14.60;99.90
68139;DHT22;54940;50.842;4.410;2023-08-06T05:11:01;14.60;99.90
68139;DHT22;54940;50.842;4.410;2023-08-06T05:13:27;14.60;99.90
68139;DHT22;54940;50.842;4.410;2023-08-06T05:15:56;14.50;99.90
68139;DHT22;54940;50.842;4.410;2023-08-06T05:18:22;14.50;99.90
68139;DHT22;54940;50.842;4.410;2023-08-06T05:20:47;14.50;99.90
68139;DHT22;54940;50.842;4.410;2023-08-06T05:23:13;14.50;99.90
68139;DHT22;54940;50.842;4.410;2023-08-06T05:25:39;14.60;99.90
68139;DHT22;54940;50.842;4.410;2023-08-06T05:28:05;14.60;99.90
68139;DHT22;54940;50.842;4.410;2023-08-06T05:30:30;14.60;99.90
68139;DHT22;54940;50.842;4.410;2023-08-06T05:32:56;14.50;99.90
68139;DHT22;54940;50.842;4.410;2023-08-06T05:35:22;14.60;99.90
68139;DHT22;54940;50.842;4.410;2023-08-06T05:37:49;14.60;99.90
68139;DHT22;54940;50.842;4.410;2023-08-06T05:40:15;14.60;99.90
68139;DHT22;54940;50.842;4.410;2023-08-06T05:42:41;14.70;99.90
68139;DHT22;54940;50.842;4.410;2023-08-06T05:45:07;14.70;99.90
68139;DHT22;54940;50.842;4.410;2023-08-06T05:47:33;14.80;99.90
68139;DHT22;54940;50.842;4.410;2023-08-06T05:50:01;14.80;99.90
68139;DHT22;54940;50.842;4.410;2023-08-06T05:52:27;14.80;99.90
68139;DHT22;54940;50.842;4.410;2023-08-06T05:54:52;14.80;99.90
68139;DHT22;54940;50.842;4.410;2023-08-06T05:57:18;14.70;99.90
68139;DHT22;54940;50.842;4.410;2023-08-06T05:59:44;14.70;99.90
68139;DHT22;54940;50.842;4.410;2023-08-06T06:02:10;14.60;99.90
68139;DHT22;54940;50.842;4.410;2023-08-06T06:04:36;14.60;99.90
68139;DHT22;54940;50.842;4.410;2023-08-06T06:07:02;14.60;99.90
68139;DHT22;54940;50.842;4.410;2023-08-06T06:09:28;14.60;99.90
68139;DHT22;54940;50.842;4.410;2023-08-06T06:11:53;14.70;99.90
68139;DHT22;54940;50.842;4.410;2023-08-06T06:14:19;14.80;99.90
68139;DHT22;54940;50.842;4.410;2023-08-06T06:16:45;14.80;99.90
68139;DHT22;54940;50.842;4.410;2023-08-06T06:19:12;14.80;99.90
68139;DHT22;54940;50.842;4.410;2023-08-06T06:21:38;14.80;99.90
68139;DHT22;54940;50.842;4.410;2023-08-06T06:24:06;14.80;99.90
68139;DHT22;54940;50.842;4.410;2023-08-06T06:26:32;14.70;99.90
68139;DHT22;54940;50.842;4.410;2023-08-06T06:28:58;14.80;99.90
68139;DHT22;54940;50.842;4.410;2023-08-06T06:31:24;14.90;99.90
68139;DHT22;54940;50.842;4.410;2023-08-06T06:33:49;14.90;99.90
68139;DHT22;54940;50.842;4.410;2023-08-06T06:36:15;14.90;99.90
68139;DHT22;54940;50.842;4.410;2023-08-06T06:38:41;15.00;99.90
68139;DHT22;54940;50.842;4.410;2023-08-06T06:41:06;15.00;99.90
68139;DHT22;54940;50.842;4.410;2023-08-06T06:43:32;14.90;99.90
68139;DHT22;54940;50.842;4.410;2023-08-06T06:45:59;15.00;99.90
68139;DHT22;54940;50.842;4.410;2023-08-06T06:48:29;15.00;99.90
68139;DHT22;54940;50.842;4.410;2023-08-06T06:50:55;15.00;99.90
68139;DHT22;54940;50.842;4.410;2023-08-06T06:53:21;15.10;99.90
68139;DHT22;54940;50.842;4.410;2023-08-06T06:56:02;15.20;99.90
68139;DHT22;54940;50.842;4.410;2023-08-06T06:58:28;15.20;99.90
68139;DHT22;54940;50.842;4.410;2023-08-06T07:00:56;15.10;99.90
68139;DHT22;54940;50.842;4.410;2023-08-06T07:03:22;15.30;99.90
68139;DHT22;54940;50.842;4.410;2023-08-06T07:05:47;15.20;99.90
68139;DHT22;54940;50.842;4.410;2023-08-06T07:08:13;15.10;99.90
68139;DHT22;54940;50.842;4.410;2023-08-06T07:10:41;15.00;99.90
68139;DHT22;54940;50.842;4.410;2023-08-06T07:13:07;15.10;99.90
68139;DHT22;54940;50.842;4.410;2023-08-06T07:15:33;15.20;99.90
68139;DHT22;54940;50.842;4.410;2023-08-06T07:17:58;15.00;99.90
68139;DHT22;54940;50.842;4.410;2023-08-06T07:20:24;15.10;99.90
68139;DHT22;54940;50.842;4.410;2023-08-06T07:22:50;15.10;99.90
68139;DHT22;54940;50.842;4.410;2023-08-06T07:25:16;15.10;99.90
68139;DHT22;54940;50.842;4.410;2023-08-06T07:27:42;15.20;99.90
68139;DHT22;54940;50.842;4.410;2023-08-06T07:30:10;15.00;99.90
68139;DHT22;54940;50.842;4.410;2023-08-06T07:32:36;14.90;99.90
68139;DHT22;54940;50.842;4.410;2023-08-06T07:35:02;14.90;99.90
68139;DHT22;54940;50.842;4.410;2023-08-06T07:37:28;14.80;99.90
68139;DHT22;54940;50.842;4.410;2023-08-06T07:39:54;14.80;99.90
68139;DHT22;54940;50.842;4.410;2023-08-06T07:42:20;14.70;99.90
68139;DHT22;54940;50.842;4.410;2023-08-06T07:44:54;14.90;99.90
68139;DHT22;54940;50.842;4.410;2023-08-06T07:47:23;15.00;99.90
68139;DHT22;54940;50.842;4.410;2023-08-06T07:49:48;15.10;99.90
68139;DHT22;54940;50.842;4.410;2023-08-06T07:52:14;15.20;99.90
68139;DHT22;54940;50.842;4.410;2023-08-06T07:54:40;15.20;99.90
68139;DHT22;54940;50.842;4.410;2023-08-06T07:57:06;15.20;99.90
68139;DHT22;54940;50.842;4.410;2023-08-06T07:59:31;15.10;99.90
68139;DHT22;54940;50.842;4.410;2023-08-06T08:01:57;15.20;99.90
68139;DHT22;54940;50.842;4.410;2023-08-06T08:04:23;15.30;99.90
68139;DHT22;54940;50.842;4.410;2023-08-06T08:06:49;15.30;99.90
68139;DHT22;54940;50.842;4.410;2023-08-06T08:09:15;15.40;99.90
68139;DHT22;54940;50.842;4.410;2023-08-06T08:11:41;15.50;99.90
68139;DHT22;54940;50.842;4.410;2023-08-06T08:14:07;15.60;99.90
68139;DHT22;54940;50.842;4.410;2023-08-06T08:16:34;15.70;99.90
68139;DHT22;54940;50.842;4.410;2023-08-06T08:19:00;15.70;99.90
68139;DHT22;54940;50.842;4.410;2023-08-06T08:21:26;15.70;99.90
68139;DHT22;54940;50.842;4.410;2023-08-06T08:23:51;15.70;99.90
68139;DHT22;54940;50.842;4.410;2023-08-06T08:26:17;15.70;99.90
68139;DHT22;54940;50.842;4.410;2023-08-06T08:28:43;15.60;99.90
68139;DHT22;54940;50.842;4.410;2023-08-06T08:31:09;15.50;99.90
68139;DHT22;54940;50.842;4.410;2023-08-06T08:33:37;15.40;99.90
68139;DHT22;54940;50.842;4.410;2023-08-06T08:36:03;15.40;99.90
68139;DHT22;54940;50.842;4.410;2023-08-06T08:38:28;15.30;99.90
68139;DHT22;54940;50.842;4.410;2023-08-06T08:40:54;15.30;99.90
68139;DHT22;54940;50.842;4.410;2023-08-06T08:43:21;15.20;99.90
68139;DHT22;54940;50.842;4.410;2023-08-06T08:45:51;15.20;99.90
68139;DHT22;54940;50.842;4.410;2023-08-06T08:48:21;15.10;99.90
68139;DHT22;54940;50.842;4.410;2023-08-06T08:50:49;15.00;99.90
68139;DHT22;54940;50.842;4.410;2023-08-06T08:53:16;15.10;99.90
68139;DHT22;54940;50.842;4.410;2023-08-06T08:55:43;15.20;99.90
68139;DHT22;54940;50.842;4.410;2023-08-06T08:58:08;15.30;99.90
68139;DHT22;54940;50.842;4.410;2023-08-06T09:00:35;15.20;99.90
68139;DHT22;54940;50.842;4.410;2023-08-06T09:03:02;15.20;99.90
68139;DHT22;54940;50.842;4.410;2023-08-06T09:05:32;15.20;99.90
68139;DHT22;54940;50.842;4.410;2023-08-06T09:08:05;15.10;99.90
68139;DHT22;54940;50.842;4.410;2023-08-06T09:10:31;15.30;99.90
68139;DHT22;54940;50.842;4.410;2023-08-06T09:12:57;15.30;99.90
68139;DHT22;54940;50.842;4.410;2023-08-06T09:15:26;15.20;99.90
68139;DHT22;54940;50.842;4.410;2023-08-06T09:17:53;15.30;99.90
68139;DHT22;54940;50.842;4.410;2023-08-06T09:20:19;15.20;99.90
68139;DHT22;54940;50.842;4.410;2023-08-06T09:22:44;15.20;99.90
68139;DHT22;54940;50.842;4.410;2023-08-06T09:25:11;15.20;99.90
68139;DHT22;54940;50.842;4.410;2023-08-06T09:27:38;15.10;99.90
68139;DHT22;54940;50.842;4.410;2023-08-06T09:30:08;15.10;99.90
68139;DHT22;54940;50.842;4.410;2023-08-06T09:32:46;15.10;99.90
68139;DHT22;54940;50.842;4.410;2023-08-06T09:35:19;15.10;99.90
68139;DHT22;54940;50.842;4.410;2023-08-06T09:37:45;15.10;99.90
68139;DHT22;54940;50.842;4.410;2023-08-06T09:40:32;15.00;99.90
68139;DHT22;54940;50.842;4.410;2023-08-06T09:43:00;15.00;99.90
68139;DHT22;54940;50.842;4.410;2023-08-06T09:45:32;15.00;99.90
68139;DHT22;54940;50.842;4.410;2023-08-06T09:47:59;15.10;99.90
68139;DHT22;54940;50.842;4.410;2023-08-06T09:50:30;15.10;99.90
68139;DHT22;54940;50.842;4.410;2023-08-06T09:53:01;15.10;99.90
68139;DHT22;54940;50.842;4.410;2023-08-06T09:55:27;15.00;99.90
68139;DHT22;54940;50.842;4.410;2023-08-06T09:57:54;14.90;99.90
68139;DHT22;54940;50.842;4.410;2023-08-06T10:00:20;14.90;99.90
68139;DHT22;54940;50.842;4.410;2023-08-06T10:02:49;14.90;99.90
68139;DHT22;54940;50.842;4.410;2023-08-06T10:05:21;14.90;99.90
68139;DHT22;54940;50.842;4.410;2023-08-06T10:07:47;14.90;99.90
68139;DHT22;54940;50.842;4.410;2023-08-06T10:10:13;15.00;99.90
68139;DHT22;54940;50.842;4.410;2023-08-06T10:12:48;15.00;99.90
68139;DHT22;54940;50.842;4.410;2023-08-06T10:15:19;14.90;99.90
68139;DHT22;54940;50.842;4.410;2023-08-06T10:17:47;15.00;99.90
68139;DHT22;54940;50.842;4.410;2023-08-06T10:20:14;14.90;99.90
68139;DHT22;54940;50.842;4.410;2023-08-06T10:22:44;15.00;99.90
68139;DHT22;54940;50.842;4.410;2023-08-06T10:25:16;14.90;99.90
68139;DHT22;54940;50.842;4.410;2023-08-06T10:30:27;14.90;99.90
68139;DHT22;54940;50.842;4.410;2023-08-06T10:32:55;14.80;99.90
68139;DHT22;54940;50.842;4.410;2023-08-06T10:40:29;14.80;99.90
68139;DHT22;54940;50.842;4.410;2023-08-06T10:42:59;14.80;99.90
68139;DHT22;54940;50.842;4.410;2023-08-06T10:45:25;14.80;99.90
68139;DHT22;54940;50.842;4.410;2023-08-06T10:47:54;14.80;99.90
68139;DHT22;54940;50.842;4.410;2023-08-06T10:50:20;14.80;99.90
68139;DHT22;54940;50.842;4.410;2023-08-06T10:52:47;14.90;99.90
68139;DHT22;54940;50.842;4.410;2023-08-06T10:55:13;14.80;99.90
68139;DHT22;54940;50.842;4.410;2023-08-06T10:57:39;14.70;99.90
68139;DHT22;54940;50.842;4.410;2023-08-06T11:00:08;14.80;99.90
68139;DHT22;54940;50.842;4.410;2023-08-06T11:02:38;15.00;99.90
68139;DHT22;54940;50.842;4.410;2023-08-06T11:05:10;15.10;99.90
68139;DHT22;54940;50.842;4.410;2023-08-06T11:07:37;15.00;99.90
68139;DHT22;54940;50.842;4.410;2023-08-06T11:10:10;15.00;99.90
68139;DHT22;54940;50.842;4.410;2023-08-06T11:12:36;15.00;99.90
68139;DHT22;54940;50.842;4.410;2023-08-06T11:15:02;15.10;99.90
68139;DHT22;54940;50.842;4.410;2023-08-06T11:17:30;15.10;99.90
68139;DHT22;54940;50.842;4.410;2023-08-06T11:19:56;15.10;99.90
68139;DHT22;54940;50.842;4.410;2023-08-06T11:22:24;15.10;99.90
68139;DHT22;54940;50.842;4.410;2023-08-06T11:24:53;14.90;99.90
68139;DHT22;54940;50.842;4.410;2023-08-06T11:27:21;15.00;99.90
68139;DHT22;54940;50.842;4.410;2023-08-06T11:29:47;15.10;99.90
68139;DHT22;54940;50.842;4.410;2023-08-06T11:32:12;15.10;99.90
68139;DHT22;54940;50.842;4.410;2023-08-06T11:34:39;14.90;99.90
68139;DHT22;54940;50.842;4.410;2023-08-06T11:37:06;14.80;99.90
68139;DHT22;54940;50.842;4.410;2023-08-06T11:39:36;14.80;99.90
68139;DHT22;54940;50.842;4.410;2023-08-06T11:42:06;14.60;99.90
68139;DHT22;54940;50.842;4.410;2023-08-06T11:44:33;14.70;99.90
68139;DHT22;54940;50.842;4.410;2023-08-06T11:46:59;14.70;99.90
68139;DHT22;54940;50.842;4.410;2023-08-06T11:49:46;14.70;99.90
68139;DHT22;54940;50.842;4.410;2023-08-06T11:52:22;14.70;99.90
68139;DHT22;54940;50.842;4.410;2023-08-06T11:57:25;14.70;99.90
68139;DHT22;54940;50.842;4.410;2023-08-06T11:59:50;14.70;99.90
68139;DHT22;54940;50.842;4.410;2023-08-06T12:02:16;14.80;99.90
68139;DHT22;54940;50.842;4.410;2023-08-06T12:05:04;14.80;99.90
68139;DHT22;54940;50.842;4.410;2023-08-06T12:07:31;15.00;99.90
68139;DHT22;54940;50.842;4.410;2023-08-06T12:09:58;15.00;99.90
68139;DHT22;54940;50.842;4.410;2023-08-06T12:12:24;14.90;99.90
68139;DHT22;54940;50.842;4.410;2023-08-06T12:14:50;14.90;99.90
68139;DHT22;54940;50.842;4.410;2023-08-06T12:17:15;14.90;99.90
68139;DHT22;54940;50.842;4.410;2023-08-06T12:19:41;14.90;99.90
68139;DHT22;54940;50.842;4.410;2023-08-06T12:22:11;15.10;99.90
68139;DHT22;54940;50.842;4.410;2023-08-06T12:24:39;15.20;99.90
68139;DHT22;54940;50.842;4.410;2023-08-06T12:27:05;15.30;99.90
68139;DHT22;54940;50.842;4.410;2023-08-06T12:29:30;15.30;99.90
68139;DHT22;54940;50.842;4.410;2023-08-06T12:31:56;15.40;99.90
68139;DHT22;54940;50.842;4.410;2023-08-06T12:34:22;15.30;99.90
68139;DHT22;54940;50.842;4.410;2023-08-06T12:36:48;15.20;99.90
68139;DHT22;54940;50.842;4.410;2023-08-06T12:39:14;15.30;99.90
68139;DHT22;54940;50.842;4.410;2023-08-06T12:41:39;15.30;99.90
68139;DHT22;54940;50.842;4.410;2023-08-06T12:44:05;15.30;99.90
68139;DHT22;54940;50.842;4.410;2023-08-06T12:46:31;15.20;99.90
68139;DHT22;54940;50.842;4.410;2023-08-06T12:48:56;15.10;99.90
68139;DHT22;54940;50.842;4.410;2023-08-06T12:51:24;15.10;99.90
68139;DHT22;54940;50.842;4.410;2023-08-06T12:53:50;15.10;99.90
68139;DHT22;54940;50.842;4.410;2023-08-06T12:56:19;15.20;99.90
68139;DHT22;54940;50.842;4.410;2023-08-06T12:58:44;15.20;99.90
68139;DHT22;54940;50.842;4.410;2023-08-06T13:01:10;15.20;99.90
68139;DHT22;54940;50.842;4.410;2023-08-06T13:03:35;15.30;99.90
68139;DHT22;54940;50.842;4.410;2023-08-06T13:06:01;15.40;99.90
68139;DHT22;54940;50.842;4.410;2023-08-06T13:08:27;15.40;99.90
68139;DHT22;54940;50.842;4.410;2023-08-06T13:10:52;15.40;99.90
68139;DHT22;54940;50.842;4.410;2023-08-06T13:13:20;15.50;99.90
68139;DHT22;54940;50.842;4.410;2023-08-06T13:15:46;15.60;99.90
68139;DHT22;54940;50.842;4.410;2023-08-06T13:18:11;15.60;99.90
68139;DHT22;54940;50.842;4.410;2023-08-06T13:20:38;15.50;99.90
68139;DHT22;54940;50.842;4.410;2023-08-06T13:23:07;15.60;99.90
68139;DHT22;54940;50.842;4.410;2023-08-06T13:25:32;15.40;99.90
68139;DHT22;54940;50.842;4.410;2023-08-06T13:28:04;15.30;99.90
68139;DHT22;54940;50.842;4.410;2023-08-06T13:30:30;15.20;99.90
68139;DHT22;54940;50.842;4.410;2023-08-06T13:32:55;15.10;99.90
68139;DHT22;54940;50.842;4.410;2023-08-06T13:35:22;15.10;99.90
68139;DHT22;54940;50.842;4.410;2023-08-06T13:37:48;15.10;99.90
68139;DHT22;54940;50.842;4.410;2023-08-06T13:40:14;15.20;99.90
68139;DHT22;54940;50.842;4.410;2023-08-06T13:42:40;15.20;99.90
68139;DHT22;54940;50.842;4.410;2023-08-06T13:45:06;15.10;99.90
68139;DHT22;54940;50.842;4.410;2023-08-06T13:47:32;15.20;99.90
68139;DHT22;54940;50.842;4.410;2023-08-06T13:49:58;15.10;99.90
68139;DHT22;54940;50.842;4.410;2023-08-06T13:52:25;15.10;99.90
68139;DHT22;54940;50.842;4.410;2023-08-06T13:54:52;15.20;99.90
68139;DHT22;54940;50.842;4.410;2023-08-06T13:57:17;15.00;99.90
68139;DHT22;54940;50.842;4.410;2023-08-06T13:59:43;15.10;99.90
68139;DHT22;54940;50.842;4.410;2023-08-06T14:02:09;15.00;99.90
68139;DHT22;54940;50.842;4.410;2023-08-06T14:04:35;14.90;99.90
68139;DHT22;54940;50.842;4.410;2023-08-06T14:07:03;14.80;99.90
68139;DHT22;54940;50.842;4.410;2023-08-06T14:09:29;14.80;99.90
68139;DHT22;54940;50.842;4.410;2023-08-06T14:11:54;14.70;99.90
68139;DHT22;54940;50.842;4.410;2023-08-06T14:14:20;14.70;99.90
68139;DHT22;54940;50.842;4.410;2023-08-06T14:16:52;14.80;99.90
68139;DHT22;54940;50.842;4.410;2023-08-06T14:19:17;14.90;99.90
68139;DHT22;54940;50.842;4.410;2023-08-06T14:21:43;14.80;99.90
68139;DHT22;54940;50.842;4.410;2023-08-06T14:24:09;14.80;99.90
68139;DHT22;54940;50.842;4.410;2023-08-06T14:26:34;14.90;99.90
68139;DHT22;54940;50.842;4.410;2023-08-06T14:29:01;15.00;99.90
68139;DHT22;54940;50.842;4.410;2023-08-06T14:31:27;14.80;99.90
68139;DHT22;54940;50.842;4.410;2023-08-06T14:33:52;14.70;99.90
68139;DHT22;54940;50.842;4.410;2023-08-06T14:36:19;14.70;99.90
68139;DHT22;54940;50.842;4.410;2023-08-06T14:38:45;14.70;99.90
68139;DHT22;54940;50.842;4.410;2023-08-06T14:41:13;14.60;99.90
68139;DHT22;54940;50.842;4.410;2023-08-06T14:43:38;14.70;99.90
68139;DHT22;54940;50.842;4.410;2023-08-06T14:46:04;14.90;99.90
68139;DHT22;54940;50.842;4.410;2023-08-06T14:48:32;14.80;99.90
68139;DHT22;54940;50.842;4.410;2023-08-06T14:50:58;14.80;99.90
68139;DHT22;54940;50.842;4.410;2023-08-06T14:53:24;14.80;99.90
68139;DHT22;54940;50.842;4.410;2023-08-06T14:55:49;14.90;99.90
68139;DHT22;54940;50.842;4.410;2023-08-06T14:58:16;14.90;99.90
68139;DHT22;54940;50.842;4.410;2023-08-06T15:00:41;14.90;99.90
68139;DHT22;54940;50.842;4.410;2023-08-06T15:03:07;15.00;99.90
68139;DHT22;54940;50.842;4.410;2023-08-06T15:05:33;15.00;99.90
68139;DHT22;54940;50.842;4.410;2023-08-06T15:08:00;14.90;99.90
68139;DHT22;54940;50.842;4.410;2023-08-06T15:10:26;15.00;99.90
68139;DHT22;54940;50.842;4.410;2023-08-06T15:12:52;15.10;99.90
68139;DHT22;54940;50.842;4.410;2023-08-06T15:15:18;14.90;99.90
68139;DHT22;54940;50.842;4.410;2023-08-06T15:17:43;14.90;99.90
68139;DHT22;54940;50.842;4.410;2023-08-06T15:20:09;14.80;99.90
68139;DHT22;54940;50.842;4.410;2023-08-06T15:22:35;14.80;99.90
68139;DHT22;54940;50.842;4.410;2023-08-06T15:25:01;14.70;99.90
68139;DHT22;54940;50.842;4.410;2023-08-06T15:27:27;14.70;99.90
68139;DHT22;54940;50.842;4.410;2023-08-06T15:29:55;14.60;99.90
68139;DHT22;54940;50.842;4.410;2023-08-06T15:32:24;14.40;99.90
68139;DHT22;54940;50.842;4.410;2023-08-06T15:34:50;14.30;99.90
68139;DHT22;54940;50.842;4.410;2023-08-06T15:37:16;14.20;99.90
68139;DHT22;54940;50.842;4.410;2023-08-06T15:39:43;14.40;99.90
68139;DHT22;54940;50.842;4.410;2023-08-06T15:42:08;14.40;99.90